createdAt,value
2023-03-02T00:00:50.641Z,13.1
2023-03-02T00:01:55.725Z,13.1
2023-03-02T00:03:01.840Z,13.1
2023-03-02T00:04:07.988Z,13.1
2023-03-02T00:05:13.933Z,13.1
2023-03-02T00:06:20.134Z,13.1
2023-03-02T00:07:26.138Z,13.1
2023-03-02T00:08:32.473Z,13.1
2023-03-02T00:09:38.603Z,13.1
2023-03-02T00:10:44.670Z,13.1
2023-03-02T00:11:50.596Z,13.1
2023-03-02T00:12:56.900Z,13.1
2023-03-02T00:14:03.020Z,13.1
2023-03-02T00:15:08.935Z,13.1
2023-03-02T00:16:14.067Z,13.1
2023-03-02T00:17:20.348Z,13.1
2023-03-02T00:18:26.463Z,13.1
2023-03-02T00:19:32.437Z,13.1
2023-03-02T00:20:38.647Z,13.1
2023-03-02T00:21:44.634Z,13.1
2023-03-02T00:22:49.970Z,13.1
2023-03-02T00:23:55.114Z,13.1
2023-03-02T00:25:00.250Z,13.1
2023-03-02T00:26:05.341Z,13.1
2023-03-02T00:27:10.411Z,13.1
2023-03-02T00:28:16.512Z,13.1
2023-03-02T00:29:22.733Z,13.1
2023-03-02T00:30:28.906Z,13.1
2023-03-02T00:31:34.953Z,13.1
2023-03-02T00:32:41.039Z,13.1
2023-03-02T00:33:47.124Z,13.1
2023-03-02T00:34:53.229Z,13.1
2023-03-02T00:35:59.321Z,13.1
2023-03-02T00:37:05.504Z,13.1
2023-03-02T00:38:11.583Z,13.1
2023-03-02T00:39:17.718Z,13.1
2023-03-02T00:40:23.887Z,13.1
2023-03-02T00:41:28.963Z,13.1
2023-03-02T00:42:34.970Z,13.1
2023-03-02T00:43:41.158Z,13.1
2023-03-02T00:44:47.329Z,13.1
2023-03-02T00:45:53.435Z,13.1
2023-03-02T00:46:59.395Z,13.1
2023-03-02T00:48:05.660Z,13.1
2023-03-02T00:49:10.805Z,13.1
2023-03-02T00:50:15.969Z,13.1
2023-03-02T00:51:21.983Z,13.2
2023-03-02T00:52:28.096Z,13.1
2023-03-02T00:53:34.275Z,13.1
2023-03-02T00:54:40.198Z,13.1
2023-03-02T00:55:46.440Z,13.1
2023-03-02T00:56:52.533Z,13.1
2023-03-02T00:57:58.691Z,13.2
2023-03-02T00:59:04.775Z,13.1
2023-03-02T01:00:10.768Z,13.1
2023-03-02T01:01:16.955Z,13.1
2023-03-02T01:02:22.989Z,13.1
2023-03-02T01:03:29.267Z,13.1
2023-03-02T01:04:34.298Z,13.1
2023-03-02T01:05:40.350Z,13.1
2023-03-02T01:06:46.618Z,13.1
2023-03-02T01:07:52.724Z,13.1
2023-03-02T01:08:58.845Z,13.1
2023-03-02T01:10:04.975Z,13.1
2023-03-02T01:11:11.309Z,13.1
2023-03-02T01:12:16.246Z,13.1
2023-03-02T01:13:21.425Z,13.1
2023-03-02T01:14:26.465Z,13.2
2023-03-02T01:15:31.513Z,13.1
2023-03-02T01:16:37.779Z,13.2
2023-03-02T01:17:43.769Z,13.1
2023-03-02T01:18:49.982Z,13.1
2023-03-02T01:19:56.063Z,13.2
2023-03-02T01:21:02.161Z,13.1
2023-03-02T01:22:08.290Z,13.1
2023-03-02T01:23:14.450Z,13.1
2023-03-02T01:24:20.535Z,13.2
2023-03-02T01:25:26.594Z,13.1
2023-03-02T01:26:32.759Z,13.1
2023-03-02T01:27:38.864Z,13.1
2023-03-02T01:28:45.023Z,13.1
2023-03-02T01:29:50.102Z,13.1
2023-03-02T01:30:56.237Z,13.1
2023-03-02T01:32:02.402Z,13.2
2023-03-02T01:33:08.455Z,13.2
2023-03-02T01:34:14.629Z,13.2
2023-03-02T01:35:20.714Z,13.2
2023-03-02T01:36:26.632Z,13.2
2023-03-02T01:37:31.962Z,13.2
2023-03-02T01:38:37.098Z,13.2
2023-03-02T01:39:42.219Z,13.1
2023-03-02T01:40:47.358Z,13.2
2023-03-02T01:41:53.479Z,13.2
2023-03-02T01:42:59.549Z,13.1
2023-03-02T01:44:05.735Z,13.2
2023-03-02T01:45:11.631Z,13.1
2023-03-02T01:46:17.901Z,13.1
2023-03-02T01:47:24.035Z,13.1
2023-03-02T01:48:30.158Z,13.1
2023-03-02T01:49:36.293Z,13.1
2023-03-02T01:50:42.333Z,13.1
2023-03-02T01:51:48.331Z,13.2
2023-03-02T01:52:54.634Z,13.1
2023-03-02T01:54:00.737Z,13.1
2023-03-02T01:55:05.836Z,13.2
2023-03-02T01:56:11.906Z,13.1
2023-03-02T01:57:18.030Z,13.2
2023-03-02T01:58:24.186Z,13.2
2023-03-02T01:59:30.283Z,13.2
2023-03-02T02:00:36.379Z,13.2
2023-03-02T02:01:42.451Z,13.1
2023-03-02T02:02:47.640Z,13.1
2023-03-02T02:03:52.792Z,13.1
2023-03-02T02:04:57.922Z,13.2
2023-03-02T02:06:02.950Z,13.2
2023-03-02T02:07:09.219Z,13.2
2023-03-02T02:08:15.302Z,13.1
2023-03-02T02:09:21.425Z,13.2
2023-03-02T02:10:27.481Z,13.1
2023-03-02T02:11:33.462Z,13.1
2023-03-02T02:12:39.707Z,13.1
2023-03-02T02:13:45.814Z,13.1
2023-03-02T02:14:51.991Z,13.1
2023-03-02T02:15:58.026Z,13.1
2023-03-02T02:17:04.075Z,13.1
2023-03-02T02:18:10.290Z,13.1
2023-03-02T02:19:16.429Z,13.1
2023-03-02T02:20:21.527Z,13.2
2023-03-02T02:21:27.678Z,13.1
2023-03-02T02:22:33.780Z,13.1
2023-03-02T02:23:39.880Z,13.1
2023-03-02T02:24:46.019Z,13.1
2023-03-02T02:25:51.980Z,13.1
2023-03-02T02:26:58.225Z,13.1
2023-03-02T02:28:03.382Z,13.1
2023-03-02T02:29:08.594Z,13.1
2023-03-02T02:30:13.640Z,13.1
2023-03-02T02:31:18.846Z,13.2
2023-03-02T02:32:24.981Z,13.1
2023-03-02T02:33:31.016Z,13.1
2023-03-02T02:34:36.931Z,13.1
2023-03-02T02:35:43.205Z,13.1
2023-03-02T02:36:49.299Z,13.1
2023-03-02T02:37:55.273Z,13.1
2023-03-02T02:39:01.386Z,13.1
2023-03-02T02:40:07.722Z,13.1
2023-03-02T02:41:13.779Z,13.1
2023-03-02T02:42:19.921Z,13.1
2023-03-02T02:43:26.010Z,13.1
2023-03-02T02:44:32.204Z,13.1
2023-03-02T02:45:37.116Z,13.1
2023-03-02T02:46:43.340Z,13.1
2023-03-02T02:47:49.306Z,13.1
2023-03-02T02:48:55.587Z,13.1
2023-03-02T02:50:01.627Z,13.1
2023-03-02T02:51:07.823Z,13.1
2023-03-02T02:52:13.800Z,13.1
2023-03-02T02:53:18.908Z,13.1
2023-03-02T02:54:24.039Z,13.1
2023-03-02T02:55:29.174Z,13.1
2023-03-02T02:56:34.298Z,13.1
2023-03-02T02:57:40.408Z,13.2
2023-03-02T02:58:46.564Z,13.1
2023-03-02T02:59:52.642Z,13.1
2023-03-02T03:00:58.756Z,13.2
2023-03-02T03:02:04.875Z,13.1
2023-03-02T03:03:10.983Z,13.1
2023-03-02T03:04:17.142Z,13.1
2023-03-02T03:05:23.209Z,13.1
2023-03-02T03:06:29.319Z,13.1
2023-03-02T03:07:35.438Z,13.1
2023-03-02T03:08:41.557Z,13.1
2023-03-02T03:09:47.674Z,13.1
2023-03-02T03:10:52.871Z,13.1
2023-03-02T03:11:58.941Z,13.1
2023-03-02T03:13:05.029Z,13.1
2023-03-02T03:14:11.132Z,13.1
2023-03-02T03:15:17.262Z,13.1
2023-03-02T03:16:23.366Z,13.1
2023-03-02T03:17:29.473Z,13.1
2023-03-02T03:18:34.618Z,13.1
2023-03-02T03:19:39.748Z,13.1
2023-03-02T03:20:44.881Z,13.1
2023-03-02T03:21:50.112Z,13.1
2023-03-02T03:22:56.124Z,13.1
2023-03-02T03:24:02.234Z,13.1
2023-03-02T03:25:08.381Z,13.1
2023-03-02T03:26:14.462Z,13.1
2023-03-02T03:27:20.569Z,13.1
2023-03-02T03:28:26.692Z,13.1
2023-03-02T03:29:32.800Z,13.1
2023-03-02T03:30:38.910Z,13.1
2023-03-02T03:31:45.025Z,13.1
2023-03-02T03:32:51.148Z,13.1
2023-03-02T03:33:57.270Z,13.1
2023-03-02T03:35:03.428Z,13.1
2023-03-02T03:36:08.542Z,13.1
2023-03-02T03:37:14.615Z,13.1
2023-03-02T03:38:20.725Z,13.1
2023-03-02T03:39:26.869Z,13.1
2023-03-02T03:40:32.989Z,13.1
2023-03-02T03:41:39.059Z,13.1
2023-03-02T03:42:45.178Z,13.1
2023-03-02T03:43:50.312Z,13.1
2023-03-02T03:44:55.493Z,13.1
2023-03-02T03:46:01.584Z,13.1
2023-03-02T03:47:06.693Z,13.1
2023-03-02T03:48:11.826Z,13.1
2023-03-02T03:49:17.937Z,13.1
2023-03-02T03:50:24.154Z,13.1
2023-03-02T03:51:30.160Z,13.1
2023-03-02T03:52:36.283Z,13.1
2023-03-02T03:53:42.419Z,13.1
2023-03-02T03:54:48.503Z,13.1
2023-03-02T03:55:54.738Z,13.1
2023-03-02T03:57:00.773Z,13.1
2023-03-02T03:58:06.996Z,13.1
2023-03-02T03:59:12.959Z,13.1
2023-03-02T04:00:19.080Z,13.1
2023-03-02T04:01:25.190Z,13.1
2023-03-02T04:02:30.323Z,13.1
2023-03-02T04:03:35.455Z,13.1
2023-03-02T04:04:41.561Z,13.1
2023-03-02T04:05:47.671Z,13.1
2023-03-02T04:06:53.817Z,13.1
2023-03-02T04:07:59.906Z,13.1
2023-03-02T04:09:06.016Z,13.1
2023-03-02T04:10:11.151Z,13.1
2023-03-02T04:11:16.294Z,13.1
2023-03-02T04:12:22.437Z,13.1
2023-03-02T04:13:27.535Z,13.1
2023-03-02T04:14:32.663Z,13.1
2023-03-02T04:15:38.773Z,13.1
2023-03-02T04:16:44.911Z,13.1
2023-03-02T04:17:51.032Z,13.1
2023-03-02T04:18:57.128Z,13.1
2023-03-02T04:20:03.246Z,13.1
2023-03-02T04:21:09.400Z,13.1
2023-03-02T04:22:15.454Z,13.1
2023-03-02T04:23:21.575Z,13.1
2023-03-02T04:24:27.693Z,13.1
2023-03-02T04:25:33.826Z,13.1
2023-03-02T04:26:39.962Z,13.1
2023-03-02T04:27:46.041Z,13.1
2023-03-02T04:28:51.165Z,13.1
2023-03-02T04:29:57.279Z,13.1
2023-03-02T04:31:03.423Z,13.1
2023-03-02T04:32:09.506Z,13.1
2023-03-02T04:33:15.637Z,13.1
2023-03-02T04:34:21.737Z,13.1
2023-03-02T04:35:27.878Z,13.1
2023-03-02T04:36:33.000Z,13.1
2023-03-02T04:37:38.121Z,13.1
2023-03-02T04:38:44.242Z,13.1
2023-03-02T04:39:50.347Z,13.1
2023-03-02T04:40:55.513Z,13.1
2023-03-02T04:42:00.613Z,13.1
2023-03-02T04:43:06.808Z,13.1
2023-03-02T04:44:12.846Z,13.1
2023-03-02T04:45:18.968Z,13
2023-03-02T04:46:25.069Z,13
2023-03-02T04:47:31.184Z,13
2023-03-02T04:48:37.296Z,13.1
2023-03-02T04:49:43.421Z,13.1
2023-03-02T04:50:49.558Z,13
2023-03-02T04:51:55.645Z,13.1
2023-03-02T04:53:01.911Z,13
2023-03-02T04:54:07.872Z,13
2023-03-02T04:55:13.999Z,13
2023-03-02T04:56:19.125Z,13
2023-03-02T04:57:25.245Z,13
2023-03-02T04:58:31.345Z,13
2023-03-02T04:59:37.450Z,13.1
2023-03-02T05:01:49.686Z,13.1
2023-03-02T05:02:55.801Z,13
2023-03-02T05:04:01.915Z,13
2023-03-02T05:05:07.045Z,13
2023-03-02T05:06:12.168Z,13.1
2023-03-02T05:07:18.287Z,13
2023-03-02T05:08:24.407Z,13
2023-03-02T05:09:30.519Z,13
2023-03-02T05:10:36.636Z,13
2023-03-02T05:11:42.771Z,13.1
2023-03-02T05:12:48.851Z,13.1
2023-03-02T05:13:54.979Z,13
2023-03-02T05:15:01.087Z,13
2023-03-02T05:16:07.204Z,13
2023-03-02T05:17:13.320Z,13
2023-03-02T05:18:19.429Z,13
2023-03-02T05:19:25.543Z,13
2023-03-02T05:20:30.672Z,13
2023-03-02T05:21:36.799Z,13
2023-03-02T05:22:42.903Z,13
2023-03-02T05:23:49.022Z,13
2023-03-02T05:24:55.161Z,13
2023-03-02T05:26:01.251Z,13
2023-03-02T05:27:07.351Z,13
2023-03-02T05:28:12.491Z,13
2023-03-02T05:29:17.622Z,13
2023-03-02T05:30:22.827Z,13
2023-03-02T05:31:27.885Z,13
2023-03-02T05:32:34.009Z,13
2023-03-02T05:33:40.114Z,13
2023-03-02T05:34:46.249Z,13
2023-03-02T05:35:52.339Z,13
2023-03-02T05:36:58.467Z,13
2023-03-02T05:38:04.574Z,13
2023-03-02T05:39:10.687Z,13
2023-03-02T05:40:16.809Z,13
2023-03-02T05:41:22.931Z,13
2023-03-02T05:42:29.025Z,13
2023-03-02T05:43:35.140Z,13
2023-03-02T05:44:41.265Z,13
2023-03-02T05:45:46.388Z,13
2023-03-02T05:46:52.502Z,13
2023-03-02T05:47:58.611Z,13
2023-03-02T05:49:04.717Z,13
2023-03-02T05:50:10.835Z,13
2023-03-02T05:51:16.956Z,13
2023-03-02T05:52:23.067Z,13
2023-03-02T05:53:28.205Z,13
2023-03-02T05:54:33.340Z,13
2023-03-02T05:55:38.469Z,13
2023-03-02T05:56:43.599Z,13
2023-03-02T05:57:49.707Z,13
2023-03-02T05:58:54.847Z,13
2023-03-02T05:59:59.980Z,13
2023-03-02T06:01:06.103Z,13
2023-03-02T06:02:12.211Z,13
2023-03-02T06:03:18.321Z,13
2023-03-02T06:04:24.435Z,13
2023-03-02T06:05:30.540Z,13
2023-03-02T06:06:36.662Z,13
2023-03-02T06:07:42.780Z,13
2023-03-02T06:08:48.912Z,13
2023-03-02T06:09:55.001Z,13
2023-03-02T06:11:01.121Z,13
2023-03-02T06:12:07.226Z,13
2023-03-02T06:13:13.341Z,13
2023-03-02T06:14:18.486Z,13
2023-03-02T06:15:24.593Z,13
2023-03-02T06:16:30.698Z,13
2023-03-02T06:17:36.818Z,13
2023-03-02T06:18:42.942Z,13
2023-03-02T06:19:49.101Z,13
2023-03-02T06:20:55.195Z,13
2023-03-02T06:22:00.304Z,13
2023-03-02T06:23:05.427Z,13
2023-03-02T06:24:11.545Z,13
2023-03-02T06:25:16.673Z,13
2023-03-02T06:26:21.811Z,13
2023-03-02T06:27:27.919Z,13
2023-03-02T06:28:34.050Z,13
2023-03-02T06:29:40.142Z,13
2023-03-02T06:30:46.260Z,13
2023-03-02T06:31:52.380Z,13
2023-03-02T06:32:58.483Z,13
2023-03-02T06:34:04.600Z,13
2023-03-02T06:35:10.723Z,13
2023-03-02T06:36:16.827Z,13
2023-03-02T06:37:22.947Z,13
2023-03-02T06:38:29.066Z,13
2023-03-02T06:39:35.185Z,13
2023-03-02T06:40:40.295Z,13
2023-03-02T06:41:46.433Z,13
2023-03-02T06:42:52.534Z,13
2023-03-02T06:43:58.651Z,13
2023-03-02T06:45:04.773Z,13
2023-03-02T06:46:10.924Z,13
2023-03-02T06:47:16.988Z,13
2023-03-02T06:48:22.144Z,13
2023-03-02T06:49:27.252Z,13
2023-03-02T06:50:33.374Z,13
2023-03-02T06:51:39.493Z,13
2023-03-02T06:52:44.620Z,13
2023-03-02T06:53:49.792Z,13
2023-03-02T06:54:55.877Z,13
2023-03-02T06:56:01.982Z,13
2023-03-02T06:57:08.088Z,13
2023-03-02T06:58:14.208Z,13
2023-03-02T06:59:20.322Z,13
2023-03-02T07:00:26.539Z,13
2023-03-02T07:01:32.581Z,13
2023-03-02T07:02:38.689Z,13
2023-03-02T07:03:44.771Z,13
2023-03-02T07:04:50.906Z,13
2023-03-02T07:05:57.010Z,13
2023-03-02T07:07:03.120Z,13
2023-03-02T07:08:08.249Z,13
2023-03-02T07:09:14.360Z,13
2023-03-02T07:10:20.498Z,13
2023-03-02T07:11:26.601Z,13
2023-03-02T07:12:32.702Z,13
2023-03-02T07:13:38.816Z,13
2023-03-02T07:14:44.938Z,13
2023-03-02T07:15:50.061Z,13
2023-03-02T07:16:55.325Z,13
2023-03-02T07:18:00.326Z,13
2023-03-02T07:19:05.459Z,13
2023-03-02T07:20:11.575Z,13
2023-03-02T07:21:17.689Z,13
2023-03-02T07:22:23.796Z,13
2023-03-02T07:23:29.921Z,13
2023-03-02T07:24:36.031Z,13
2023-03-02T07:25:42.143Z,13
2023-03-02T07:26:48.258Z,13
2023-03-02T07:27:54.371Z,13
2023-03-02T07:29:00.488Z,13
2023-03-02T07:30:06.607Z,13
2023-03-02T07:31:12.709Z,13
2023-03-02T07:32:18.819Z,13
2023-03-02T07:33:23.948Z,13
2023-03-02T07:34:30.074Z,13
2023-03-02T07:35:36.191Z,13
2023-03-02T07:36:42.304Z,13
2023-03-02T07:37:48.413Z,13
2023-03-02T07:38:54.534Z,13
2023-03-02T07:40:00.632Z,13
2023-03-02T07:41:05.790Z,13
2023-03-02T07:42:11.885Z,13
2023-03-02T07:43:17.038Z,13
2023-03-02T07:44:22.170Z,13
2023-03-02T07:45:27.296Z,13
2023-03-02T07:46:33.404Z,13
2023-03-02T07:47:39.523Z,13
2023-03-02T07:48:45.661Z,13
2023-03-02T07:49:51.755Z,13
2023-03-02T07:50:57.867Z,13
2023-03-02T07:52:03.989Z,13
2023-03-02T07:53:10.098Z,13
2023-03-02T07:54:16.212Z,13
2023-03-02T07:55:22.326Z,13
2023-03-02T07:56:28.436Z,13
2023-03-02T07:57:34.557Z,13
2023-03-02T07:58:40.676Z,13
2023-03-02T07:59:45.792Z,13
2023-03-02T08:00:51.896Z,13
2023-03-02T08:01:58.044Z,13
2023-03-02T08:03:04.146Z,13
2023-03-02T08:04:10.376Z,12.9
2023-03-02T08:05:16.362Z,13
2023-03-02T08:06:22.498Z,13
2023-03-02T08:07:27.639Z,13
2023-03-02T08:08:32.795Z,13
2023-03-02T08:09:38.859Z,13
2023-03-02T08:10:44.025Z,13
2023-03-02T08:11:49.142Z,13
2023-03-02T08:12:55.251Z,13
2023-03-02T08:14:01.359Z,12.9
2023-03-02T08:15:07.464Z,12.9
2023-03-02T08:16:13.584Z,13
2023-03-02T08:17:19.695Z,12.9
2023-03-02T08:18:25.810Z,13
2023-03-02T08:19:31.929Z,12.9
2023-03-02T08:20:38.038Z,13
2023-03-02T08:21:44.161Z,13
2023-03-02T08:22:50.279Z,13
2023-03-02T08:23:56.395Z,12.9
2023-03-02T08:25:02.505Z,13
2023-03-02T08:26:07.653Z,13
2023-03-02T08:27:13.781Z,12.9
2023-03-02T08:28:19.876Z,12.9
2023-03-02T08:29:25.968Z,13
2023-03-02T08:30:32.081Z,13
2023-03-02T08:31:38.195Z,12.9
2023-03-02T08:32:44.319Z,12.9
2023-03-02T08:33:49.465Z,13
2023-03-02T08:34:54.599Z,12.9
2023-03-02T08:36:00.694Z,12.9
2023-03-02T08:37:05.836Z,12.9
2023-03-02T08:38:10.968Z,12.9
2023-03-02T08:39:17.071Z,13
2023-03-02T08:40:23.177Z,12.9
2023-03-02T08:41:29.295Z,12.9
2023-03-02T08:42:35.406Z,13
2023-03-02T08:43:41.521Z,13
2023-03-02T08:44:47.645Z,12.9
2023-03-02T08:45:53.770Z,12.9
2023-03-02T08:46:59.867Z,12.9
2023-03-02T08:48:05.982Z,12.9
2023-03-02T08:49:12.100Z,12.9
2023-03-02T08:50:18.201Z,13
2023-03-02T08:51:24.489Z,13
2023-03-02T08:52:29.458Z,12.9
2023-03-02T08:53:35.562Z,12.9
2023-03-02T08:54:41.677Z,12.9
2023-03-02T08:55:47.805Z,12.9
2023-03-02T08:56:54.033Z,12.9
2023-03-02T08:58:00.027Z,12.9
2023-03-02T08:59:06.134Z,12.9
2023-03-02T09:00:11.272Z,13
2023-03-02T09:01:16.393Z,12.9
2023-03-02T09:02:22.521Z,12.9
2023-03-02T09:03:28.629Z,13
2023-03-02T09:04:33.769Z,12.9
2023-03-02T09:05:38.898Z,12.9
2023-03-02T09:06:45.003Z,12.9
2023-03-02T09:07:51.120Z,13
2023-03-02T09:08:57.388Z,12.9
2023-03-02T09:10:03.355Z,13
2023-03-02T09:11:09.452Z,13
2023-03-02T09:12:15.574Z,13
2023-03-02T09:13:21.779Z,12.9
2023-03-02T09:14:27.818Z,12.9
2023-03-02T09:15:33.909Z,12.9
2023-03-02T09:16:40.107Z,13
2023-03-02T09:17:46.147Z,12.9
2023-03-02T09:18:52.260Z,12.9
2023-03-02T09:19:57.443Z,13
2023-03-02T09:21:03.510Z,12.9
2023-03-02T09:22:09.622Z,12.9
2023-03-02T09:23:15.736Z,12.9
2023-03-02T09:24:21.853Z,12.9
2023-03-02T09:25:27.970Z,12.9
2023-03-02T09:26:34.167Z,13
2023-03-02T09:27:39.313Z,12.9
2023-03-02T09:28:44.405Z,13
2023-03-02T09:29:50.472Z,13
2023-03-02T09:30:55.631Z,13
2023-03-02T09:32:01.728Z,12.9
2023-03-02T09:33:07.833Z,13
2023-03-02T09:34:13.037Z,12.9
2023-03-02T09:35:19.064Z,12.9
2023-03-02T09:36:25.180Z,12.9
2023-03-02T09:37:31.322Z,12.9
2023-03-02T09:38:37.411Z,13
2023-03-02T09:39:43.559Z,12.9
2023-03-02T09:40:49.647Z,12.9
2023-03-02T09:41:55.747Z,13
2023-03-02T09:43:01.908Z,13
2023-03-02T09:44:07.981Z,13
2023-03-02T09:45:14.111Z,13
2023-03-02T09:46:20.215Z,13
2023-03-02T09:47:26.319Z,13
2023-03-02T09:48:31.454Z,13
2023-03-02T09:49:37.691Z,13
2023-03-02T09:50:43.765Z,13
2023-03-02T09:51:49.788Z,13
2023-03-02T09:52:55.966Z,13
2023-03-02T09:54:01.158Z,13
2023-03-02T09:55:07.284Z,13
2023-03-02T09:56:12.319Z,13
2023-03-02T09:57:17.417Z,13
2023-03-02T09:58:23.543Z,13
2023-03-02T09:59:29.775Z,13
2023-03-02T10:00:35.758Z,13
2023-03-02T10:01:41.869Z,13
2023-03-02T10:02:48.095Z,13
2023-03-02T10:03:54.146Z,13
2023-03-02T10:05:00.220Z,13
2023-03-02T10:06:06.382Z,13
2023-03-02T10:07:12.457Z,13
2023-03-02T10:08:18.562Z,13
2023-03-02T10:09:24.704Z,13
2023-03-02T10:10:30.796Z,13
2023-03-02T10:11:35.962Z,13
2023-03-02T10:12:42.049Z,13
2023-03-02T10:13:48.136Z,13
2023-03-02T10:14:54.294Z,13
2023-03-02T10:16:00.380Z,13
2023-03-02T10:17:06.481Z,13
2023-03-02T10:18:12.600Z,13
2023-03-02T10:19:17.808Z,13
2023-03-02T10:20:22.880Z,13
2023-03-02T10:21:28.987Z,13
2023-03-02T10:22:34.118Z,13
2023-03-02T10:23:39.260Z,13
2023-03-02T10:24:45.416Z,13
2023-03-02T10:25:51.494Z,13
2023-03-02T10:26:57.585Z,13
2023-03-02T10:28:03.714Z,13
2023-03-02T10:29:09.837Z,13
2023-03-02T10:30:15.924Z,13
2023-03-02T10:31:22.046Z,13
2023-03-02T10:32:28.162Z,13
2023-03-02T10:33:34.277Z,13
2023-03-02T10:35:46.505Z,13
2023-03-02T10:36:52.617Z,13
2023-03-02T10:37:57.738Z,13
2023-03-02T10:39:03.915Z,13
2023-03-02T10:40:09.974Z,13
2023-03-02T10:41:16.086Z,13
2023-03-02T10:42:22.198Z,13
2023-03-02T10:43:28.318Z,13
2023-03-02T10:44:34.436Z,13
2023-03-02T10:45:40.561Z,13
2023-03-02T10:46:45.753Z,13
2023-03-02T10:47:50.865Z,13
2023-03-02T10:48:55.941Z,13
2023-03-02T10:50:01.085Z,13
2023-03-02T10:51:07.189Z,13
2023-03-02T10:52:13.293Z,13
2023-03-02T10:53:19.412Z,13
2023-03-02T10:54:25.524Z,13
2023-03-02T10:55:31.659Z,13
2023-03-02T10:56:37.754Z,13
2023-03-02T10:57:43.871Z,13
2023-03-02T10:58:49.974Z,13
2023-03-02T10:59:56.096Z,13
2023-03-02T11:01:02.219Z,13
2023-03-02T11:02:08.366Z,13
2023-03-02T11:03:14.427Z,13
2023-03-02T11:04:19.568Z,13
2023-03-02T11:05:25.684Z,13
2023-03-02T11:06:31.864Z,13
2023-03-02T11:07:37.951Z,13
2023-03-02T11:08:44.036Z,13
2023-03-02T11:09:50.143Z,13
2023-03-02T11:10:56.252Z,13
2023-03-02T11:12:01.404Z,13
2023-03-02T11:13:06.514Z,13
2023-03-02T11:14:12.633Z,13
2023-03-02T11:15:18.756Z,13
2023-03-02T11:16:23.886Z,13
2023-03-02T11:17:29.069Z,13
2023-03-02T11:18:35.127Z,13
2023-03-02T11:19:41.645Z,13
2023-03-02T11:20:47.368Z,13
2023-03-02T11:21:53.469Z,13
2023-03-02T11:22:59.591Z,13
2023-03-02T11:24:05.688Z,13
2023-03-02T11:25:10.928Z,13
2023-03-02T11:26:16.948Z,13
2023-03-02T11:27:23.119Z,13
2023-03-02T11:28:29.159Z,13
2023-03-02T11:29:35.275Z,13
2023-03-02T11:30:41.408Z,13
2023-03-02T11:31:47.507Z,13
2023-03-02T11:32:53.628Z,13
2023-03-02T11:33:59.739Z,13
2023-03-02T11:35:05.885Z,13
2023-03-02T11:36:12.032Z,13
2023-03-02T11:37:18.080Z,13
2023-03-02T11:38:24.196Z,13
2023-03-02T11:39:29.411Z,13
2023-03-02T11:40:34.462Z,13
2023-03-02T11:41:39.601Z,13
2023-03-02T11:42:44.735Z,13
2023-03-02T11:43:50.837Z,13
2023-03-02T11:44:56.964Z,13
2023-03-02T11:46:03.066Z,13
2023-03-02T11:47:09.179Z,13
2023-03-02T11:48:15.352Z,13
2023-03-02T11:49:21.409Z,13
2023-03-02T11:50:27.521Z,13
2023-03-02T11:51:33.704Z,13
2023-03-02T11:52:39.989Z,13
2023-03-02T11:53:46.102Z,13
2023-03-02T11:54:52.070Z,13
2023-03-02T11:55:58.283Z,13
2023-03-02T11:57:03.317Z,13
2023-03-02T11:58:09.520Z,13
2023-03-02T11:59:15.636Z,13
2023-03-02T12:00:21.705Z,13
2023-03-02T12:01:27.896Z,13
2023-03-02T12:02:33.959Z,13
2023-03-02T12:03:40.107Z,13
2023-03-02T12:04:45.214Z,13
2023-03-02T12:05:50.352Z,13
2023-03-02T12:06:56.403Z,13
2023-03-02T12:08:01.508Z,13
2023-03-02T12:09:06.593Z,13
2023-03-02T12:10:12.829Z,13
2023-03-02T12:11:18.927Z,13
2023-03-02T12:12:25.001Z,13
2023-03-02T12:13:31.201Z,13
2023-03-02T12:14:37.126Z,13
2023-03-02T12:15:43.439Z,13
2023-03-02T12:16:49.356Z,13
2023-03-02T12:17:55.621Z,13
2023-03-02T12:19:01.717Z,13
2023-03-02T12:20:07.832Z,13
2023-03-02T12:21:13.938Z,13
2023-03-02T12:22:20.104Z,13
2023-03-02T12:23:25.253Z,13
2023-03-02T12:24:31.328Z,13
2023-03-02T12:25:37.270Z,13
2023-03-02T12:26:43.548Z,13
2023-03-02T12:27:49.502Z,13
2023-03-02T12:28:55.707Z,13
2023-03-02T12:30:01.882Z,13
2023-03-02T12:31:07.055Z,13
2023-03-02T12:32:12.114Z,13
2023-03-02T12:33:18.103Z,13
2023-03-02T12:34:24.359Z,13
2023-03-02T12:35:30.346Z,13
2023-03-02T12:36:36.617Z,13
2023-03-02T12:37:42.786Z,13
2023-03-02T12:38:48.791Z,13
2023-03-02T12:39:54.961Z,13
2023-03-02T12:41:01.111Z,13
2023-03-02T12:42:07.030Z,13
2023-03-02T12:43:13.335Z,13
2023-03-02T12:44:19.418Z,13
2023-03-02T12:45:25.387Z,13
2023-03-02T12:46:30.735Z,13
2023-03-02T12:47:36.683Z,13
2023-03-02T12:48:42.937Z,13
2023-03-02T12:49:48.886Z,13
2023-03-02T12:50:55.106Z,13
2023-03-02T12:52:01.129Z,13
2023-03-02T12:53:07.217Z,13
2023-03-02T12:54:12.367Z,13
2023-03-02T12:55:17.636Z,13
2023-03-02T12:56:22.770Z,13
2023-03-02T12:57:27.893Z,13
2023-03-02T12:58:33.965Z,13
2023-03-02T12:59:39.949Z,13
2023-03-02T13:00:46.228Z,13
2023-03-02T13:01:52.325Z,13
2023-03-02T13:02:58.277Z,13
2023-03-02T13:04:04.532Z,13
2023-03-02T13:05:10.500Z,13
2023-03-02T13:06:16.704Z,13
2023-03-02T13:07:22.734Z,13
2023-03-02T13:08:28.860Z,13
2023-03-02T13:09:35.015Z,13
2023-03-02T13:10:41.088Z,13
2023-03-02T13:11:46.203Z,13
2023-03-02T13:12:52.323Z,13
2023-03-02T13:13:58.540Z,13
2023-03-02T13:15:04.551Z,13
2023-03-02T13:16:10.655Z,13
2023-03-02T13:17:16.792Z,13
2023-03-02T13:18:22.884Z,13
2023-03-02T13:19:28.020Z,13
2023-03-02T13:20:33.151Z,13
2023-03-02T13:21:38.297Z,13
2023-03-02T13:22:43.418Z,13
2023-03-02T13:23:48.555Z,13
2023-03-02T13:24:53.758Z,13
2023-03-02T13:25:59.838Z,13
2023-03-02T13:27:05.915Z,13
2023-03-02T13:28:12.032Z,13
2023-03-02T13:29:18.213Z,13
2023-03-02T13:30:24.252Z,13
2023-03-02T13:31:30.414Z,13
2023-03-02T13:32:36.486Z,13
2023-03-02T13:33:42.592Z,13
2023-03-02T13:34:48.715Z,13
2023-03-02T13:35:54.825Z,13
2023-03-02T13:37:00.938Z,13
2023-03-02T13:38:07.153Z,13
2023-03-02T13:39:12.262Z,13
2023-03-02T13:40:18.301Z,13
2023-03-02T13:41:24.405Z,13
2023-03-02T13:42:30.524Z,13
2023-03-02T13:43:36.656Z,13
2023-03-02T13:44:42.808Z,13
2023-03-02T13:45:48.966Z,13
2023-03-02T13:46:54.068Z,13
2023-03-02T13:47:59.190Z,13
2023-03-02T13:49:05.285Z,13
2023-03-02T13:50:10.377Z,13
2023-03-02T13:51:15.501Z,13
2023-03-02T13:52:21.624Z,13
2023-03-02T13:53:27.742Z,13
2023-03-02T13:54:33.855Z,13
2023-03-02T13:55:39.964Z,13
2023-03-02T13:56:46.092Z,13
2023-03-02T13:57:52.195Z,13
2023-03-02T13:58:58.313Z,13
2023-03-02T14:00:04.458Z,13
2023-03-02T14:01:10.532Z,13
2023-03-02T14:02:16.706Z,13
2023-03-02T14:03:22.849Z,13
2023-03-02T14:04:28.920Z,13
2023-03-02T14:05:34.154Z,13
2023-03-02T14:06:40.201Z,13
2023-03-02T14:08:52.558Z,13
2023-03-02T14:09:58.580Z,13
2023-03-02T14:11:04.652Z,13
2023-03-02T14:12:10.748Z,13
2023-03-02T14:13:16.802Z,13.1
2023-03-02T14:14:22.009Z,13.1
2023-03-02T14:15:27.067Z,13.1
2023-03-02T14:16:33.304Z,13.1
2023-03-02T14:17:39.400Z,13.2
2023-03-02T14:18:45.453Z,13.2
2023-03-02T14:19:51.521Z,13.3
2023-03-02T14:20:57.639Z,13.3
2023-03-02T14:22:03.754Z,13.3
2023-03-02T14:23:09.868Z,13.4
2023-03-02T14:24:16.034Z,13.4
2023-03-02T14:25:22.242Z,13.4
2023-03-02T14:26:28.206Z,13.5
2023-03-02T14:27:34.470Z,13.5
2023-03-02T14:28:40.424Z,13.5
2023-03-02T14:29:46.604Z,13.6
2023-03-02T14:30:51.679Z,13.6
2023-03-02T14:31:57.867Z,13.6
2023-03-02T14:33:03.991Z,13.7
2023-03-02T14:34:10.060Z,13.7
2023-03-02T14:35:16.180Z,13.7
2023-03-02T14:36:22.388Z,13.7
2023-03-02T14:37:27.586Z,13.8
2023-03-02T14:38:32.692Z,13.8
2023-03-02T14:39:37.846Z,13.8
2023-03-02T14:40:42.785Z,13.8
2023-03-02T14:41:47.917Z,13.9
2023-03-02T14:42:53.038Z,13.9
2023-03-02T14:43:59.160Z,13.9
2023-03-02T14:45:05.275Z,13.9
2023-03-02T14:46:11.395Z,13.9
2023-03-02T14:47:17.504Z,13.9
2023-03-02T14:48:23.620Z,13.9
2023-03-02T14:49:29.735Z,13.9
2023-03-02T14:50:35.850Z,13.9
2023-03-02T14:51:41.956Z,13.9
2023-03-02T14:52:48.071Z,13.9
2023-03-02T14:53:54.334Z,14
2023-03-02T14:55:00.433Z,14
2023-03-02T14:56:06.627Z,14
2023-03-02T14:57:11.547Z,14
2023-03-02T14:58:17.666Z,14
2023-03-02T14:59:23.764Z,14
2023-03-02T15:02:42.111Z,14.1
2023-03-02T15:03:48.364Z,14.1
2023-03-02T15:04:53.527Z,14.1
2023-03-02T15:05:58.681Z,14.1
2023-03-02T15:07:04.667Z,14.1
2023-03-02T15:08:10.762Z,14.2
2023-03-02T15:09:16.839Z,14.1
2023-03-02T15:10:22.949Z,14.1
2023-03-02T15:11:29.069Z,14.2
2023-03-02T15:12:35.189Z,14.2
2023-03-02T15:13:41.288Z,14.2
2023-03-02T15:14:47.427Z,14.2
2023-03-02T15:15:53.532Z,14.2
2023-03-02T15:16:58.677Z,14.2